Terminal Aerodrome Forecast
Issued by NWS

Home | Current Version | Previous Version | Text Only | Print | Product List | Glossary On
Versions: 1 2 3 4 5 6 7 8 9 10 11 12 13 14 15 16 17 18
000
FTPQ31 PGUM 022324
TAFGUM
TAF

TAF
PGSN 022324Z 0300/0324 07017G27KT P6SM VCSH FEW018 SCT035
      TEMPO 0303/0307 5SM SHRA SCT015 OVC025
     FM030900 06015KT P6SM VCSH SCT018 SCT035=

USA.gov is the U.S. government's official web portal to all federal, state and local government web resources and services.